Dallas, Oregon
Current Conditions -  °F | °C
As of 3:56 AM on Thursday 23 Oct 2014 (Local Time) from KSLE Reporting Station
Moderate Rain Moderate Rain  
Wind Chill: 55°   Ceiling: 4500
Heat Index: 55°   Visibility: 5mi
Dew Point: 53°   Wind: 6mph
Humidity: 93%   Direction: 190°S
Pressure: 29.77"   Gusts: NA
Location:  44.92°N, 123.31°W
Report Text: KSLE 231056Z AUTO 19005KT 5SM RA BR BKN045 OVC060 13/12 A2977 RMK AO2 RAB05E17B41 SLP079 P0001 T01280117
Loading
Personal Weather Stations






























Interactive Weather Map
Tropical Storm Tracking
New forecast layout! Learn more

10-Day Weather Forecast

Advertisements
Track Severe Weather on mobile